Time;durP1;ratioP1;P1;durP2;ratioP2;P2;SDS_P1;SDS_P2;PMS_P1;PMS_P2;Temp;Humidity;BMP_temperature;BMP_pressure;BME280_temperature;BME280_humidity;BME280_pressure;Samples;Min_cycle;Max_cycle;Signal;HPM_P1;HPM_P2
2022/02/27 00:00:24;;;;;;;;;15.25;14.00;;;;;11.20;53.17;101221.47;146605;564;46017;-70
2022/02/27 00:03:17;;;;;;;;;13.75;12.50;;;;;11.25;53.26;101204.47;146606;609;46020;-70
2022/02/27 00:06:10;;;;;;;;;10.75;9.00;;;;;11.26;53.53;101201.06;146604;682;46913;-69
2022/02/27 00:09:01;;;;;;;;;15.25;13.00;;;;;11.30;55.31;101192.63;146606;588;46010;-70
2022/02/27 00:11:54;;;;;;;;;12.00;12.00;;;;;11.26;55.75;101188.97;146603;584;47012;-70
2022/02/27 00:14:46;;;;;;;;;16.25;15.25;;;;;11.30;55.28;101190.03;146604;640;46021;-69
2022/02/27 00:17:40;;;;;;;;;9.25;6.50;;;;;11.35;56.05;101192.91;146603;597;46912;-70
2022/02/27 00:20:33;;;;;;;;;20.25;17.25;;;;;11.32;57.72;101189.31;146605;597;46020;-70
2022/02/27 00:23:25;;;;;;;;;14.50;12.50;;;;;11.29;58.26;101180.47;146605;605;46012;-70
2022/02/27 00:26:17;;;;;;;;;16.25;13.00;;;;;11.24;59.90;101171.50;146604;623;46010;-69
2022/02/27 00:29:09;;;;;;;;;17.00;15.25;;;;;11.05;61.06;101159.22;146604;611;46013;-73
2022/02/27 00:32:01;;;;;;;;;14.50;14.50;;;;;10.95;60.32;101154.31;146618;579;47020;-72
2022/02/27 00:34:53;;;;;;;;;20.75;17.75;;;;;10.94;63.75;101160.34;146604;577;46015;-71
2022/02/27 00:37:45;;;;;;;;;21.25;17.25;;;;;10.86;63.95;101155.56;146605;579;47010;-70
2022/02/27 00:40:38;;;;;;;;;22.50;17.00;;;;;10.81;63.47;101138.87;146603;591;47012;-72
2022/02/27 00:43:30;;;;;;;;;19.75;15.25;;;;;10.76;63.35;101135.13;146609;607;45035;-72
2022/02/27 00:46:22;;;;;;;;;18.75;16.50;;;;;10.72;63.71;101127.09;146605;569;46012;-73
2022/02/27 00:49:14;;;;;;;;;18.25;16.00;;;;;10.73;65.04;101121.09;146606;620;46020;-73
2022/02/27 00:52:07;;;;;;;;;19.25;17.50;;;;;10.74;64.43;101104.72;146602;584;46012;-71
2022/02/27 00:54:59;;;;;;;;;20.00;16.25;;;;;10.73;63.61;101115.91;146604;576;46010;-73
2022/02/27 00:57:51;;;;;;;;;15.25;13.00;;;;;10.66;64.01;101100.81;146606;592;46016;-72
2022/02/27 01:00:43;;;;;;;;;14.50;12.50;;;;;10.63;62.49;101096.34;146604;665;46020;-73
2022/02/27 01:03:35;;;;;;;;;11.25;9.50;;;;;10.62;62.05;101084.16;146603;573;46015;-73
2022/02/27 01:06:27;;;;;;;;;15.00;12.25;;;;;10.73;61.75;101079.59;146607;573;46010;-74
2022/02/27 01:09:19;;;;;;;;;11.00;10.25;;;;;10.76;61.63;101091.03;146603;579;47012;-73
2022/02/27 01:12:11;;;;;;;;;10.25;10.00;;;;;10.80;60.33;101081.72;146607;627;46011;-73
2022/02/27 01:15:03;;;;;;;;;11.75;10.50;;;;;10.82;59.83;101065.44;146606;603;46012;-72
2022/02/27 01:17:55;;;;;;;;;9.50;9.50;;;;;10.84;61.15;101066.41;146609;587;46010;-72
2022/02/27 01:20:47;;;;;;;;;9.25;9.25;;;;;10.82;62.29;101059.34;146607;578;46012;-73
2022/02/27 01:23:39;;;;;;;;;13.00;11.25;;;;;10.78;60.46;101070.38;146602;638;46020;-72
2022/02/27 01:26:31;;;;;;;;;13.00;12.00;;;;;10.77;62.89;101060.78;146603;631;47012;-72
2022/02/27 01:29:23;;;;;;;;;13.50;12.50;;;;;10.71;62.50;101060.44;146605;581;46010;-73
2022/02/27 01:32:16;;;;;;;;;14.00;11.25;;;;;10.60;63.73;101033.94;146606;605;46012;-72
2022/02/27 01:35:09;;;;;;;;;15.00;12.50;;;;;10.55;64.96;101004.25;146608;657;46010;-71
2022/02/27 01:38:01;;;;;;;;;13.50;12.00;;;;;10.55;62.86;100980.91;146601;563;46016;-69
2022/02/27 01:40:54;;;;;;;;;15.00;13.00;;;;;10.61;62.30;100986.44;146605;564;46020;-68
2022/02/27 01:43:46;;;;;;;;;14.75;13.50;;;;;10.68;62.65;100990.25;146607;593;45017;-69
2022/02/27 01:46:38;;;;;;;;;10.75;9.00;;;;;10.64;62.78;101015.12;146606;616;46020;-69
2022/02/27 01:49:31;;;;;;;;;14.50;12.75;;;;;10.71;62.28;101003.37;146602;567;46913;-69
2022/02/27 01:52:23;;;;;;;;;15.25;13.25;;;;;10.68;62.39;100993.72;146604;583;46010;-69
2022/02/27 01:55:15;;;;;;;;;11.75;10.25;;;;;10.72;61.89;101000.91;146603;592;46016;-70
2022/02/27 01:58:07;;;;;;;;;9.25;9.25;;;;;10.77;60.82;100990.75;146603;613;46917;-70
2022/02/27 02:01:01;;;;;;;;;11.25;10.25;;;;;10.81;61.50;100984.91;146608;605;46012;-71
2022/02/27 02:03:53;;;;;;;;;11.75;10.25;;;;;10.78;61.63;100966.63;146606;564;46011;-71
2022/02/27 02:06:46;;;;;;;;;6.25;6.25;;;;;10.80;59.94;100959.78;146604;571;46016;-72
2022/02/27 02:09:38;;;;;;;;;9.75;9.75;;;;;10.86;59.45;100965.31;146606;593;46020;-71
2022/02/27 02:12:31;;;;;;;;;11.25;11.00;;;;;10.98;58.48;100965.97;146602;564;46017;-70
2022/02/27 02:15:23;;;;;;;;;12.75;12.75;;;;;11.06;58.54;100972.47;146605;596;46020;-71
2022/02/27 02:18:15;;;;;;;;;13.00;13.00;;;;;11.17;58.93;100966.94;146608;595;46012;-71
2022/02/27 02:21:07;;;;;;;;;14.50;14.50;;;;;11.24;58.94;100979.44;146614;595;46010;-71
2022/02/27 02:23:59;;;;;;;;;13.25;12.75;;;;;11.28;58.97;100974.50;146610;621;47012;-72
2022/02/27 02:26:51;;;;;;;;;18.75;16.50;;;;;11.32;60.01;100976.44;146613;572;46020;-71
2022/02/27 02:29:44;;;;;;;;;16.50;15.50;;;;;11.34;60.11;100966.13;146610;708;46012;-71
2022/02/27 02:32:37;;;;;;;;;18.25;16.50;;;;;11.33;60.94;100962.63;146613;592;47015;-70
2022/02/27 02:35:31;;;;;;;;;17.00;16.25;;;;;11.26;61.79;100975.22;146608;614;47012;-71
2022/02/27 02:38:22;;;;;;;;;16.00;15.25;;;;;11.21;60.80;100946.41;146614;668;46010;-71
2022/02/27 02:41:15;;;;;;;;;19.75;18.50;;;;;11.21;61.95;100945.53;146610;623;47012;-69
2022/02/27 02:44:08;;;;;;;;;20.50;16.00;;;;;11.22;61.97;100931.75;146614;611;46020;-71
2022/02/27 02:47:00;;;;;;;;;19.75;19.25;;;;;11.21;61.17;100938.63;146608;578;47013;-73
2022/02/27 02:49:52;;;;;;;;;18.75;16.75;;;;;11.17;61.53;100941.87;146611;593;47010;-73
2022/02/27 02:52:44;;;;;;;;;19.75;17.00;;;;;11.25;61.41;100948.38;146607;574;46016;-73
2022/02/27 02:55:36;;;;;;;;;19.25;17.25;;;;;11.31;60.84;100934.81;146610;572;46021;-73
2022/02/27 02:58:29;;;;;;;;;23.75;23.00;;;;;11.34;62.13;100942.78;146607;563;47012;-73
2022/02/27 03:01:22;;;;;;;;;19.25;18.75;;;;;11.36;61.95;100935.94;146611;581;46020;-73
2022/02/27 03:04:15;;;;;;;;;15.50;14.00;;;;;11.35;61.74;100941.06;146609;604;46012;-72
2022/02/27 03:07:07;;;;;;;;;15.50;15.00;;;;;10.29;64.00;100748.81;146611;605;46020;-72
2022/02/27 03:10:00;;;;;;;;;21.50;19.00;;;;;11.30;63.58;100933.91;146607;622;46017;-73
2022/02/27 03:12:52;;;;;;;;;17.75;14.75;;;;;11.21;65.70;100928.25;146616;607;46010;-72
2022/02/27 03:15:44;;;;;;;;;18.50;12.75;;;;;11.12;64.60;100925.19;146611;599;46012;-73
2022/02/27 03:18:37;;;;;;;;;13.75;12.50;;;;;11.07;64.00;100913.69;146613;618;46020;-73
2022/02/27 03:21:29;;;;;;;;;20.00;19.00;;;;;11.03;64.50;100930.78;146608;609;46016;-73
2022/02/27 03:24:21;;;;;;;;;13.50;11.50;;;;;11.03;64.33;100922.13;146612;581;47011;-75
2022/02/27 03:27:13;;;;;;;;;13.75;11.75;;;;;10.99;66.75;100927.94;146609;613;47012;-72
2022/02/27 03:30:05;;;;;;;;;16.50;16.50;;;;;10.90;67.84;100911.87;146614;594;47010;-71
2022/02/27 03:32:57;;;;;;;;;13.75;13.75;;;;;10.81;67.94;100904.50;146610;590;46913;-71
2022/02/27 03:35:49;;;;;;;;;18.25;17.25;;;;;10.80;66.94;100897.53;146615;598;46010;-71
2022/02/27 03:38:41;;;;;;;;;21.00;19.00;;;;;10.81;66.62;100914.87;146609;566;47012;-71
2022/02/27 03:41:33;;;;;;;;;21.50;19.00;;;;;10.79;67.71;100907.03;146614;564;45021;-71
2022/02/27 03:44:26;;;;;;;;;16.00;15.25;;;;;10.78;68.93;100913.03;146611;563;46016;-71
2022/02/27 03:47:18;;;;;;;;;10.00;10.00;;;;;10.77;66.21;100902.56;146611;617;46011;-72
2022/02/27 03:50:11;;;;;;;;;10.75;9.75;;;;;10.76;67.20;100903.38;146609;569;47012;-72
2022/02/27 03:53:03;;;;;;;;;7.00;6.00;;;;;10.71;68.30;100912.63;146613;622;46021;-72
2022/02/27 03:55:55;;;;;;;;;7.25;7.25;;;;;10.75;68.19;100906.81;146609;577;47012;-72
2022/02/27 03:58:48;;;;;;;;;9.25;8.50;;;;;10.72;69.86;100894.56;146612;629;46020;-73
2022/02/27 04:01:40;;;;;;;;;11.00;10.25;;;;;10.71;72.23;100871.13;146610;591;46017;-73
2022/02/27 04:04:32;;;;;;;;;12.00;11.00;;;;;10.68;71.92;100868.34;146613;573;46020;-70
2022/02/27 04:07:24;;;;;;;;;16.00;12.00;;;;;10.66;72.51;100857.91;146611;602;46012;-70
2022/02/27 04:10:17;;;;;;;;;9.75;9.75;;;;;10.58;72.88;100856.63;146612;621;46021;-71
2022/02/27 04:13:09;;;;;;;;;12.25;10.50;;;;;10.57;73.07;100860.91;146609;595;46913;-73
2022/02/27 04:16:01;;;;;;;;;13.75;10.75;;;;;10.56;71.54;100876.38;146613;582;46011;-75
2022/02/27 04:18:53;;;;;;;;;14.25;10.75;;;;;10.55;73.07;100874.59;146610;563;47012;-73
2022/02/27 04:21:46;;;;;;;;;10.00;10.00;;;;;10.55;73.77;100874.59;146612;598;46020;-73
2022/02/27 04:24:38;;;;;;;;;13.75;13.75;;;;;10.54;74.09;100855.56;146608;628;47013;-72
2022/02/27 04:27:30;;;;;;;;;16.00;13.75;;;;;10.60;73.13;100844.63;146612;596;46020;-72
2022/02/27 04:30:23;;;;;;;;;18.25;16.00;;;;;10.59;74.47;100855.78;146609;758;46016;-71
2022/02/27 04:33:14;;;;;;;;;14.50;12.75;;;;;10.56;75.75;100848.78;146611;588;46021;-75
2022/02/27 04:36:07;;;;;;;;;15.00;15.00;;;;;10.50;75.42;100825.09;146610;651;46014;-70
2022/02/27 04:38:59;;;;;;;;;17.00;14.75;;;;;10.51;76.09;100845.03;146612;596;47010;-71
2022/02/27 04:41:51;;;;;;;;;16.00;15.00;;;;;10.54;75.86;100833.94;146605;590;46016;-71
2022/02/27 04:44:43;;;;;;;;;20.50;17.50;;;;;10.50;74.85;100826.78;146611;593;46020;-70
2022/02/27 04:47:35;;;;;;;;;18.00;15.75;;;;;10.55;73.98;100846.97;146609;570;47013;-70
2022/02/27 04:50:28;;;;;;;;;15.50;12.00;;;;;10.48;74.43;100841.38;146612;582;46020;-71
2022/02/27 04:53:20;;;;;;;;;18.00;16.00;;;;;10.50;73.02;100847.53;146611;590;46012;-69
2022/02/27 04:56:12;;;;;;;;;20.50;17.50;;;;;10.53;73.59;100848.59;146613;566;46020;-71
2022/02/27 04:59:04;;;;;;;;;21.25;18.00;;;;;10.57;72.06;100837.56;146609;578;46016;-72
2022/02/27 05:01:56;;;;;;;;;20.25;17.50;;;;;10.58;70.62;100839.34;146615;588;46011;-75
2022/02/27 05:04:48;;;;;;;;;18.50;16.25;;;;;10.66;70.06;100837.19;146609;612;47012;-75
2022/02/27 05:07:40;;;;;;;;;18.75;17.50;;;;;10.74;69.52;100851.41;146613;705;46020;-74
2022/02/27 05:10:32;;;;;;;;;16.25;15.25;;;;;10.71;69.55;100846.06;146612;642;46012;-75
2022/02/27 05:13:24;;;;;;;;;16.75;16.50;;;;;10.76;68.50;100817.78;146611;737;46020;-76
2022/02/27 05:16:17;;;;;;;;;16.00;13.75;;;;;10.82;67.97;100803.44;146600;588;46016;-72
2022/02/27 05:19:08;;;;;;;;;20.50;18.25;;;;;10.87;68.88;100811.44;146612;588;47010;-72
2022/02/27 05:22:01;;;;;;;;;16.75;12.75;;;;;10.89;66.15;100833.16;146608;606;46913;-72
2022/02/27 05:24:53;;;;;;;;;13.75;13.25;;;;;10.95;66.15;100822.22;146613;602;46021;-71
2022/02/27 05:27:45;;;;;;;;;20.00;14.00;;;;;10.94;67.41;100823.94;146609;574;46016;-70
2022/02/27 05:30:38;;;;;;;;;14.50;13.25;;;;;10.95;66.75;100824.81;146612;566;46020;-71
2022/02/27 05:33:30;;;;;;;;;14.50;11.75;;;;;10.91;67.67;100813.41;146609;584;47012;-71
2022/02/27 05:36:22;;;;;;;;;19.25;16.00;;;;;10.94;68.81;100815.28;146612;692;47010;-71
2022/02/27 05:39:15;;;;;;;;;13.25;11.75;;;;;10.89;70.28;100845.25;146607;594;47012;-73
2022/02/27 05:42:07;;;;;;;;;10.25;9.50;;;;;10.84;70.38;100834.63;146608;574;47014;-72
2022/02/27 05:44:59;;;;;;;;;11.00;11.00;;;;;10.80;71.38;100827.50;146609;565;46013;-72
2022/02/27 05:47:51;;;;;;;;;14.75;11.75;;;;;10.81;71.29;100811.13;146614;564;46020;-72
2022/02/27 05:50:43;;;;;;;;;13.50;12.25;;;;;10.79;71.93;100811.06;146611;600;46014;-73
2022/02/27 05:53:36;;;;;;;;;14.75;12.50;;;;;10.74;71.90;100820.28;146614;602;46010;-72
2022/02/27 05:56:28;;;;;;;;;12.50;11.00;;;;;10.69;72.38;100810.53;146612;578;46012;-72
2022/02/27 05:59:20;;;;;;;;;11.00;10.00;;;;;10.67;71.66;100802.66;146613;595;47010;-71
2022/02/27 06:02:12;;;;;;;;;11.25;10.25;;;;;10.65;72.40;100793.88;146611;602;46012;-74
2022/02/27 06:05:04;;;;;;;;;7.75;7.75;;;;;10.67;72.61;100791.38;146613;633;46020;-77
2022/02/27 06:07:56;;;;;;;;;10.75;9.25;;;;;10.71;72.46;100811.47;146611;579;46032;-74
2022/02/27 06:10:48;;;;;;;;;10.00;9.75;;;;;10.71;71.94;100794.19;146612;583;46020;-75
2022/02/27 06:13:40;;;;;;;;;13.50;11.50;;;;;10.73;71.80;100791.69;146609;595;46012;-75
2022/02/27 06:16:33;;;;;;;;;12.00;10.00;;;;;10.72;71.99;100789.94;146612;594;46021;-73
2022/02/27 06:19:25;;;;;;;;;9.25;9.25;;;;;10.68;72.94;100799.22;146611;734;47012;-74
2022/02/27 06:22:17;;;;;;;;;12.50;9.75;;;;;10.66;73.31;100806.06;146615;701;46011;-74
2022/02/27 06:25:09;;;;;;;;;9.00;7.75;;;;;10.59;74.16;100794.47;146608;695;47012;-72
2022/02/27 06:28:22;;;;;;;;;7.75;7.75;;;;;10.60;73.35;100790.19;146614;620;46014;-73
2022/02/27 06:31:14;;;;;;;;;11.75;10.50;;;;;10.64;72.91;100771.38;146609;613;46016;-72
2022/02/27 06:34:06;;;;;;;;;8.25;7.25;;;;;10.66;74.56;100750.72;146613;589;47010;-74
2022/02/27 06:36:58;;;;;;;;;10.25;8.50;;;;;10.63;75.06;100760.09;146609;623;46017;-73
2022/02/27 06:39:50;;;;;;;;;11.00;10.50;;;;;10.58;75.94;100756.38;146610;566;46021;-73
2022/02/27 06:42:44;;;;;;;;;10.75;9.75;;;;;10.51;76.11;100743.91;146609;668;47012;-72
2022/02/27 06:45:36;;;;;;;;;6.25;6.25;;;;;10.51;76.31;100735.25;146614;565;46011;-74
2022/02/27 06:48:28;;;;;;;;;8.75;8.75;;;;;10.52;76.71;100719.75;146610;584;46014;-72
2022/02/27 06:51:20;;;;;;;;;7.00;7.00;;;;;10.50;77.04;100728.25;146613;585;46020;-74
2022/02/27 06:54:12;;;;;;;;;8.00;7.50;;;;;10.53;76.44;100721.56;146612;564;46012;-73
2022/02/27 06:57:04;;;;;;;;;9.25;8.50;;;;;10.55;77.16;100729.41;146615;604;46010;-71
2022/02/27 06:59:57;;;;;;;;;6.50;6.00;;;;;10.59;75.40;100734.84;146607;576;47013;-71
2022/02/27 07:02:51;;;;;;;;;8.75;6.00;;;;;10.61;76.69;100727.12;146611;590;46020;-72
2022/02/27 07:05:43;;;;;;;;;10.00;9.75;;;;;10.67;76.81;100736.94;146610;606;46012;-71
2022/02/27 07:08:34;;;;;;;;;11.25;10.00;;;;;10.72;77.09;100722.50;146612;600;47014;-71
2022/02/27 07:11:27;;;;;;;;;8.25;7.25;;;;;10.74;76.63;100726.94;146610;579;46012;-71
2022/02/27 07:14:18;;;;;;;;;10.00;8.00;;;;;10.76;77.84;100689.00;146614;764;45028;-71
2022/02/27 07:17:11;;;;;;;;;11.75;10.00;;;;;10.79;78.06;100701.25;146610;618;46012;-70
2022/02/27 07:20:02;;;;;;;;;10.75;10.00;;;;;10.82;77.91;100681.53;146614;563;46029;-69
2022/02/27 07:22:55;;;;;;;;;9.75;8.25;;;;;10.89;77.84;100681.81;146611;666;46013;-70
2022/02/27 07:25:47;;;;;;;;;11.50;9.00;;;;;10.96;76.93;100691.69;146614;563;46010;-70
2022/02/27 07:28:39;;;;;;;;;7.75;5.75;;;;;10.99;79.20;100677.16;146610;579;46016;-71
2022/02/27 07:31:32;;;;;;;;;14.50;12.00;;;;;11.06;76.80;100673.19;146610;570;46021;-69
2022/02/27 07:34:24;;;;;;;;;10.25;8.75;;;;;11.08;78.21;100674.13;146611;587;46012;-71
2022/02/27 07:37:16;;;;;;;;;8.75;7.75;;;;;11.11;78.58;100676.88;146611;588;47010;-69
2022/02/27 07:40:09;;;;;;;;;11.75;8.25;;;;;11.17;78.25;100673.69;146609;602;46016;-70
2022/02/27 07:43:01;;;;;;;;;12.50;11.25;;;;;11.15;80.67;100694.34;146612;647;46020;-71
2022/02/27 07:45:53;;;;;;;;;11.75;9.50;;;;;11.09;81.46;100684.59;146610;573;46012;-67
2022/02/27 07:48:45;;;;;;;;;11.50;10.75;;;;;11.08;81.16;100693.16;146612;589;47010;-70
2022/02/27 07:51:39;;;;;;;;;9.75;8.75;;;;;11.00;82.24;100678.94;146612;597;46013;-69
2022/02/27 07:54:31;;;;;;;;;12.75;10.75;;;;;11.01;80.70;100659.09;146613;575;46020;-67
2022/02/27 07:57:23;;;;;;;;;12.75;11.50;;;;;11.01;82.30;100672.06;146608;628;47012;-68
2022/02/27 08:00:16;;;;;;;;;17.25;13.25;;;;;11.02;81.37;100664.31;146614;573;46010;-69
2022/02/27 08:03:08;;;;;;;;;13.00;11.75;;;;;11.06;79.83;100668.00;146609;616;46016;-68
2022/02/27 08:06:00;;;;;;;;;15.75;12.25;;;;;11.06;78.69;100671.47;146612;634;46011;-69
2022/02/27 08:08:55;;;;;;;;;8.75;7.25;;;;;11.17;78.05;100681.47;146610;598;46035;-69
2022/02/27 08:11:47;;;;;;;;;12.75;10.25;;;;;11.23;77.32;100676.56;146613;565;47010;-69
2022/02/27 08:14:39;;;;;;;;;10.75;9.50;;;;;11.24;77.14;100679.22;146610;596;46014;-69
2022/02/27 08:17:31;;;;;;;;;15.25;12.00;;;;;11.29;76.84;100690.72;146614;666;46020;-70
2022/02/27 08:20:23;;;;;;;;;29.25;29.00;;;;;11.33;76.11;100704.72;146609;610;46012;-68
2022/02/27 08:23:18;;;;;;;;;41.50;34.75;;;;;11.31;78.78;100717.66;146615;653;46021;-70
2022/02/27 08:26:10;;;;;;;;;22.75;17.25;;;;;11.29;81.61;100734.84;146606;763;49912;-69
2022/02/27 08:29:03;;;;;;;;;14.25;12.75;;;;;11.13;79.89;100740.12;146612;616;46014;-70
2022/02/27 08:31:55;;;;;;;;;11.00;11.00;;;;;10.86;80.06;100753.50;146610;615;47012;-71
2022/02/27 08:34:47;;;;;;;;;9.00;9.00;;;;;10.56;80.45;100763.22;146611;649;46020;-69
2022/02/27 08:37:39;;;;;;;;;9.00;8.00;;;;;10.31;79.44;100768.81;146607;573;47012;-71
2022/02/27 08:40:31;;;;;;;;;9.00;8.00;;;;;10.16;78.29;100773.16;146613;627;46020;-67
2022/02/27 08:43:24;;;;;;;;;7.50;6.75;;;;;10.03;79.04;100781.03;146612;606;46012;-69
2022/02/27 08:46:16;;;;;;;;;22.50;21.25;;;;;9.96;77.52;100792.78;146614;636;46020;-71
2022/02/27 08:51:33;;;;;;;;;39.50;34.00;;;;;9.96;80.28;100803.13;146698;564;46014;-69
2022/02/27 08:54:25;;;;;;;;;24.25;23.00;;;;;10.01;77.97;100806.00;146612;591;46016;-69
2022/02/27 08:57:18;;;;;;;;;35.75;32.50;;;;;10.03;76.85;100810.47;146609;627;46011;-68
2022/02/27 09:00:12;;;;;;;;;18.50;15.50;;;;;10.06;77.13;100800.25;146603;566;47012;-68
2022/02/27 09:03:04;;;;;;;;;20.25;18.00;;;;;10.11;76.25;100805.69;146607;654;46010;-70
2022/02/27 09:05:57;;;;;;;;;14.75;14.25;;;;;10.12;75.82;100798.00;146604;574;46016;-68
2022/02/27 09:08:49;;;;;;;;;21.25;19.75;;;;;10.15;75.48;100805.03;146609;586;46020;-70
2022/02/27 09:11:42;;;;;;;;;40.50;33.75;;;;;10.22;76.12;100803.66;146605;564;46916;-70
2022/02/27 09:14:34;;;;;;;;;38.00;33.25;;;;;10.31;76.17;100806.78;146608;584;46010;-70
2022/02/27 09:17:26;;;;;;;;;35.75;32.25;;;;;10.37;76.41;100814.88;146605;581;47916;-70
2022/02/27 09:20:18;;;;;;;;;54.00;43.25;;;;;10.42;78.61;100823.81;146607;578;46010;-70
2022/02/27 09:23:11;;;;;;;;;51.00;43.00;;;;;10.39;78.48;100832.28;146603;569;46916;-71
2022/02/27 09:26:02;;;;;;;;;57.00;45.75;;;;;10.35;79.95;100838.13;146610;569;47014;-70
2022/02/27 09:28:56;;;;;;;;;48.75;39.00;;;;;10.29;79.38;100849.88;146608;639;45915;-71
2022/02/27 09:31:48;;;;;;;;;35.25;30.50;;;;;10.18;80.98;100846.66;146608;590;47010;-70
2022/02/27 09:34:40;;;;;;;;;36.00;31.50;;;;;10.16;78.32;100858.66;146602;582;46014;-70
2022/02/27 09:37:32;;;;;;;;;37.00;31.25;;;;;10.16;78.18;100875.09;146609;570;46010;-70
2022/02/27 09:40:24;;;;;;;;;22.75;22.75;;;;;10.18;77.23;100882.94;146605;566;45916;-70
2022/02/27 09:43:17;;;;;;;;;30.25;28.75;;;;;10.17;77.67;100886.34;146611;574;46010;-70
2022/02/27 09:46:10;;;;;;;;;49.25;39.25;;;;;10.20;76.39;100885.63;146605;572;46012;-71
2022/02/27 09:49:03;;;;;;;;;46.25;37.75;;;;;10.24;76.12;100879.78;146609;564;46021;-71
2022/02/27 09:51:58;;;;;;;;;47.00;38.75;;;;;10.30;76.07;100867.19;146605;595;46012;-69
2022/02/27 09:54:52;;;;;;;;;32.00;28.25;;;;;10.39;75.87;100862.50;146609;569;46020;-70
2022/02/27 09:57:49;;;;;;;;;47.00;39.75;;;;;10.49;75.47;100861.31;146607;662;46016;-70
2022/02/27 10:00:41;;;;;;;;;43.75;36.75;;;;;10.59;75.11;100856.72;146610;575;46010;-70
2022/02/27 10:03:35;;;;;;;;;44.75;37.75;;;;;10.68;74.56;100843.31;146604;599;46012;-70
2022/02/27 10:06:28;;;;;;;;;39.25;34.50;;;;;9.62;74.34;100664.03;146605;661;46010;-69
2022/02/27 10:09:30;;;;;;;;;35.25;31.75;;;;;10.59;73.43;100790.97;146602;580;46916;-69
2022/02/27 10:12:28;;;;;;;;;38.50;33.25;;;;;10.86;73.66;100822.63;146612;636;45051;-69
2022/02/27 10:15:21;;;;;;;;;36.75;31.50;;;;;10.92;72.36;100807.38;146601;595;46014;-70
2022/02/27 10:18:17;;;;;;;;;35.75;30.75;;;;;10.95;72.65;100796.28;146611;591;46010;-69
2022/02/27 10:21:28;;;;;;;;;34.00;31.25;;;;;10.85;73.25;100787.16;146603;631;46012;-69
2022/02/27 10:24:21;;;;;;;;;28.50;27.00;;;;;10.98;72.01;100807.69;146610;564;45021;-69
2022/02/27 10:27:14;;;;;;;;;28.75;27.00;;;;;10.95;70.15;100804.06;146607;589;45915;-69
2022/02/27 10:30:17;;;;;;;;;28.75;26.25;;;;;10.95;71.75;100802.34;146609;580;46020;-69
2022/02/27 10:33:15;;;;;;;;;36.25;31.50;;;;;10.85;73.94;100781.97;146605;576;46016;-69
2022/02/27 10:36:07;;;;;;;;;41.00;35.50;;;;;10.89;75.05;100790.78;146607;648;46010;-69
2022/02/27 10:39:03;;;;;;;;;43.25;37.00;;;;;10.80;75.42;100753.19;146607;668;46012;-69
2022/02/27 10:41:55;;;;;;;;;24.00;22.00;;;;;10.99;72.40;100764.47;146608;636;46021;-69
2022/02/27 10:45:00;;;;;;;;;19.25;19.25;;;;;10.34;72.48;100587.53;146604;564;46016;-72
2022/02/27 10:47:54;;;;;;;;;28.00;24.00;;;;;11.93;73.66;100754.31;146607;599;46020;-69
2022/02/27 10:50:48;;;;;;;;;29.25;26.50;;;;;12.59;73.67;100750.38;146606;569;46916;-70
2022/02/27 10:53:46;;;;;;;;;34.25;30.25;;;;;13.11;72.28;100755.16;146608;594;46011;-71
2022/02/27 10:56:41;;;;;;;;;16.25;14.00;;;;;13.47;67.92;100759.25;146605;625;46014;-70
2022/02/27 10:59:34;;;;;;;;;19.50;19.25;;;;;13.83;67.95;100754.56;146610;563;46010;-70
2022/02/27 11:02:30;;;;;;;;;17.00;16.00;;;;;14.16;64.83;100749.75;146606;578;46014;-70
2022/02/27 11:05:28;;;;;;;;;30.75;29.50;;;;;14.51;64.97;100734.53;146609;615;46020;-70
2022/02/27 11:08:21;;;;;;;;;16.75;16.75;;;;;14.79;63.05;100739.88;146604;575;47916;-72
2022/02/27 11:11:14;;;;;;;;;26.50;23.00;;;;;15.04;62.59;100737.22;146607;577;46014;-70
2022/02/27 11:14:07;;;;;;;;;20.75;17.25;;;;;15.20;60.79;100740.38;146605;574;46014;-70
2022/02/27 11:17:01;;;;;;;;;15.75;15.25;;;;;15.40;61.57;100738.41;146608;590;46020;-70
2022/02/27 11:19:53;;;;;;;;;28.00;25.50;;;;;15.58;62.05;100734.63;146602;588;46014;-71
2022/02/27 11:22:54;;;;;;;;;25.00;22.75;;;;;15.75;62.59;100730.81;146608;584;47010;-70
2022/02/27 11:25:47;;;;;;;;;24.75;21.00;;;;;15.89;61.97;100731.25;146604;570;46916;-72
2022/02/27 11:29:05;;;;;;;;;20.50;20.25;;;;;16.01;62.06;100731.59;146613;600;45029;-70
2022/02/27 11:31:58;;;;;;;;;19.50;17.75;;;;;14.49;57.56;100452.69;146604;606;46013;-71
2022/02/27 11:34:58;;;;;;;;;12.50;12.00;;;;;16.08;57.84;100733.53;146606;604;46020;-71
2022/02/27 11:37:54;;;;;;;;;12.00;11.25;;;;;16.13;58.27;100731.03;146611;578;45017;-70
2022/02/27 11:40:58;;;;;;;;;21.00;20.00;;;;;16.12;58.35;100718.81;146609;602;46010;-72
2022/02/27 11:44:00;;;;;;;;;20.50;17.00;;;;;16.35;57.14;100735.16;146607;573;46016;-71
2022/02/27 11:51:02;;;;;;;;;13.25;13.25;;;;;16.49;56.99;100732.94;146601;563;46012;-71
2022/02/27 11:53:56;;;;;;;;;24.00;19.75;;;;;16.40;56.61;100738.78;146608;585;46012;-71
2022/02/27 11:57:13;;;;;;;;;24.75;23.00;;;;;14.91;56.72;100467.00;146605;575;46012;-71
2022/02/27 12:00:19;;;;;;;;;24.75;19.50;;;;;16.61;56.48;100725.41;146613;648;45021;-71
2022/02/27 12:07:10;;;;;;;;;25.75;21.00;;;;;16.76;56.47;100714.47;146610;636;46010;-71
2022/02/27 12:10:04;;;;;;;;;17.50;17.50;;;;;16.75;55.84;100713.59;146605;585;45914;-71
2022/02/27 12:12:58;;;;;;;;;42.50;33.50;;;;;16.74;56.46;100708.28;146610;628;46020;-71
2022/02/27 12:15:50;;;;;;;;;17.00;15.00;;;;;16.71;54.14;100706.47;146605;588;46017;-71
2022/02/27 12:19:00;;;;;;;;;35.00;31.00;;;;;16.78;56.72;100710.16;146608;637;46010;-71
2022/02/27 12:21:56;;;;;;;;;16.25;16.25;;;;;16.81;55.43;100705.00;146604;648;46016;-70
2022/02/27 12:25:07;;;;;;;;;34.50;30.25;;;;;16.83;56.26;100708.56;146606;634;47010;-71
2022/02/27 12:44:07;;;;;;;;;12.25;10.75;;;;;17.39;51.54;100681.97;146605;616;46012;-71
2022/02/27 12:51:04;;;;;;;;;16.50;12.00;;;;;17.45;50.63;100687.34;146616;628;46018;-70
2022/02/27 12:54:00;;;;;;;;;39.75;34.00;;;;;17.45;51.29;100698.72;146609;599;46021;-71
2022/02/27 12:57:16;;;;;;;;;11.50;10.50;;;;;17.34;51.60;100691.44;146604;656;46016;-71
2022/02/27 13:00:09;;;;;;;;;18.75;17.00;;;;;16.46;51.07;100547.91;146606;584;46020;-71
2022/02/27 13:06:42;;;;;;;;;14.50;14.50;;;;;17.51;50.56;100688.37;146611;605;46020;-71
2022/02/27 13:21:59;;;;;;;;;10.25;9.75;;;;;17.71;50.11;100690.53;146610;686;47009;-71
2022/02/27 13:24:54;;;;;;;;;15.00;13.00;;;;;17.70;48.17;100713.25;146610;602;46017;-71
2022/02/27 13:27:51;;;;;;;;;13.25;12.75;;;;;17.66;47.92;100705.28;146606;597;47010;-70
2022/02/27 13:30:43;;;;;;;;;11.25;10.50;;;;;17.58;47.77;100707.75;146610;607;45914;-71
2022/02/27 13:37:43;;;;;;;;;8.50;8.50;;;;;17.75;47.55;100708.09;146605;592;46015;-71
2022/02/27 13:40:41;;;;;;;;;10.75;7.00;;;;;17.71;45.24;100715.03;146615;565;46021;-71
2022/02/27 13:43:33;;;;;;;;;9.50;8.50;;;;;17.43;46.23;100705.66;146612;640;46012;-71
2022/02/27 13:46:25;;;;;;;;;6.50;5.00;;;;;17.04;47.00;100714.34;146617;583;46010;-70
2022/02/27 13:49:17;;;;;;;;;13.50;12.00;;;;;16.68;48.27;100716.88;146611;651;46016;-70
2022/02/27 13:52:28;;;;;;;;;9.50;8.00;;;;;16.37;49.14;100708.19;146609;617;46010;-71
2022/02/27 13:55:30;;;;;;;;;12.00;12.00;;;;;16.05;49.36;100712.53;146608;569;47012;-70
2022/02/27 14:06:01;;;;;;;;;17.25;14.00;;;;;15.44;49.88;100723.72;146605;589;47010;-71
2022/02/27 14:09:04;;;;;;;;;7.00;7.00;;;;;15.33;50.07;100727.72;146603;590;47012;-71